Time;durP1;ratioP1;P1;durP2;ratioP2;P2;SDS_P1;SDS_P2;PMS_P1;PMS_P2;Temp;Humidity;BMP_temperature;BMP_pressure;BME280_temperature;BME280_humidity;BME280_pressure;Samples;Min_cycle;Max_cycle;Signal;HPM_P1;HPM_P2
2021/03/16 00:00:42;;;;;;;8.40;4.67;;;;;;;2.92;100.00;100254.69;5038838;28;20025;-95
2021/03/16 00:03:09;;;;;;;6.83;4.23;;;;;;;2.92;100.00;100267.72;5034470;28;20035;-95
2021/03/16 00:05:38;;;;;;;9.30;4.53;;;;;;;2.93;100.00;100265.13;5047842;28;20024;-95
2021/03/16 00:08:05;;;;;;;8.83;4.43;;;;;;;2.91;100.00;100271.19;5029504;28;20064;-95
2021/03/16 00:10:31;;;;;;;7.50;4.43;;;;;;;2.93;100.00;100264.25;5022925;28;20036;-94
2021/03/16 00:13:02;;;;;;;10.03;4.67;;;;;;;2.91;100.00;100269.47;5026743;28;20031;-95
2021/03/16 00:15:28;;;;;;;7.33;4.47;;;;;;;2.91;100.00;100274.69;5021150;28;20028;-95
2021/03/16 00:17:57;;;;;;;6.73;4.03;;;;;;;2.94;100.00;100273.81;5020734;28;20039;-96
2021/03/16 00:20:27;;;;;;;6.53;3.90;;;;;;;2.93;100.00;100278.16;5029639;28;20047;-95
2021/03/16 00:23:01;;;;;;;8.03;3.63;;;;;;;2.91;100.00;100276.41;5039750;28;20032;-96
2021/03/16 00:25:28;;;;;;;;;;;;;;;2.91;100.00;100284.25;5039871;28;20035;-95
2021/03/16 00:27:58;;;;;;;6.63;4.10;;;;;;;2.92;100.00;100283.38;5017127;28;19909;-95
2021/03/16 00:30:24;;;;;;;7.73;4.20;;;;;;;2.91;100.00;100286.84;5020889;28;20113;-95
2021/03/16 00:32:59;;;;;;;6.10;3.40;;;;;;;2.91;100.00;100281.63;5019589;28;20029;-96
2021/03/16 00:35:25;;;;;;;7.07;4.13;;;;;;;2.95;100.00;100284.28;5018382;28;20037;-96
2021/03/16 00:37:57;;;;;;;7.27;3.90;;;;;;;2.92;100.00;100286.00;5036347;28;20041;-94
2021/03/16 00:40:24;;;;;;;8.87;5.17;;;;;;;2.94;100.00;100292.94;5023988;28;20034;-94
2021/03/16 00:42:53;;;;;;;10.03;4.87;;;;;;;2.93;100.00;100285.13;5018640;28;20030;-95
2021/03/16 00:45:19;;;;;;;9.50;4.80;;;;;;;2.92;100.00;100299.03;5036961;28;20025;-95
2021/03/16 00:47:45;;;;;;;9.40;4.33;;;;;;;2.93;100.00;100306.00;5021721;28;20092;-94
2021/03/16 00:50:14;;;;;;;7.87;4.10;;;;;;;2.93;100.00;100303.38;5022160;28;20407;-94
2021/03/16 00:52:41;;;;;;;6.73;3.87;;;;;;;2.96;100.00;100306.91;5024335;28;20028;-96
2021/03/16 00:55:07;;;;;;;7.53;4.03;;;;;;;2.95;100.00;100312.13;5036214;28;20029;-94
2021/03/16 00:57:37;;;;;;;7.27;4.33;;;;;;;2.94;100.00;100318.16;5012809;28;20025;-94
2021/03/16 01:00:05;;;;;;;6.77;3.50;;;;;;;2.97;100.00;100318.22;5008807;28;20025;-95
2021/03/16 01:02:34;;;;;;;7.50;3.17;;;;;;;2.94;100.00;100318.16;5017610;28;20101;-95
2021/03/16 01:05:01;;;;;;;4.83;2.70;;;;;;;2.93;100.00;100319.91;5020330;28;20025;-94
2021/03/16 01:07:36;;;;;;;6.70;3.33;;;;;;;2.91;100.00;100328.59;5014953;28;20025;-96
2021/03/16 01:10:15;;;;;;;5.17;3.17;;;;;;;2.91;100.00;100326.00;5023038;28;20029;-95
2021/03/16 01:12:46;;;;;;;4.63;2.70;;;;;;;2.91;100.00;100328.59;5026575;28;20042;-95
2021/03/16 01:15:13;;;;;;;4.57;2.47;;;;;;;2.90;100.00;100326.88;5017975;28;20025;-95
2021/03/16 01:17:45;;;;;;;5.43;2.40;;;;;;;2.91;100.00;100332.09;5021982;28;20024;-96
2021/03/16 01:20:24;;;;;;;6.27;3.10;;;;;;;2.85;100.00;100331.16;5032948;28;20025;-95
2021/03/16 01:22:58;;;;;;;5.47;2.90;;;;;;;2.91;100.00;100333.81;5018277;28;20025;-94
2021/03/16 01:25:24;;;;;;;4.93;2.95;;;;;;;2.86;100.00;100333.81;5026783;28;20037;-95
2021/03/16 01:27:56;;;;;;;6.37;3.57;;;;;;;2.93;100.00;100337.31;5019815;28;20060;-95
2021/03/16 01:30:33;;;;;;;5.20;3.00;;;;;;;2.90;100.00;100343.38;5026831;28;20032;-96
2021/03/16 01:33:07;;;;;;;5.73;3.20;;;;;;;2.90;100.00;100347.75;5025789;28;20029;-96
2021/03/16 01:35:34;;;;;;;6.40;4.00;;;;;;;2.93;100.00;100346.00;5033052;28;20040;-94
2021/03/16 01:38:09;;;;;;;7.53;3.90;;;;;;;2.92;100.00;100348.59;5021531;28;20029;-96
2021/03/16 01:40:40;;;;;;;7.63;4.03;;;;;;;2.88;100.00;100347.72;5023664;28;20052;-95
2021/03/16 01:43:19;;;;;;;9.00;4.80;;;;;;;2.89;100.00;100349.47;5027555;28;20052;-94
2021/03/16 01:45:55;;;;;;;8.60;4.13;;;;;;;2.86;100.00;100357.28;5045142;28;20041;-96
2021/03/16 01:48:34;;;;;;;8.70;4.70;;;;;;;2.86;100.00;100349.47;5015844;28;20053;-96
2021/03/16 01:51:11;;;;;;;10.68;5.43;;;;;;;2.87;100.00;100355.56;5035121;28;20032;-95
2021/03/16 01:53:39;;;;;;;8.93;6.17;;;;;;;2.83;100.00;100346.81;5040980;28;20105;-96
2021/03/16 01:56:24;;;;;;;11.15;5.80;;;;;;;2.86;100.00;100341.66;5035005;28;20205;-94
2021/03/16 01:59:02;;;;;;;11.07;5.57;;;;;;;2.90;100.00;100348.59;5027336;28;20091;-95
2021/03/16 02:01:37;;;;;;;11.93;6.45;;;;;;;2.85;100.00;100355.53;5015080;28;20053;-95
2021/03/16 02:04:06;;;;;;;11.07;5.97;;;;;;;2.83;100.00;100365.09;5028098;28;20044;-94
2021/03/16 02:06:42;;;;;;;11.90;6.23;;;;;;;2.80;100.00;100358.13;5024532;28;20044;-96
2021/03/16 02:09:35;;;;;;;11.93;6.60;;;;;;;2.79;100.00;100374.66;5033891;28;20092;-95
2021/03/16 02:12:32;;;;;;;12.00;6.53;;;;;;;2.76;100.00;100372.00;5040945;28;20025;-95
2021/03/16 02:15:09;;;;;;;9.17;5.83;;;;;;;2.74;100.00;100384.16;5024747;28;20029;-96
2021/03/16 02:17:38;;;;;;;10.83;6.13;;;;;;;2.79;100.00;100384.22;5029835;28;20026;-96
2021/03/16 02:20:21;;;;;;;10.90;6.90;;;;;;;2.74;100.00;100383.28;5020397;28;20060;-95
2021/03/16 02:22:51;;;;;;;10.83;6.47;;;;;;;2.72;100.00;100395.44;5022742;28;20031;-94
2021/03/16 02:25:39;;;;;;;9.20;5.43;;;;;;;2.78;100.00;100396.38;5039841;28;20037;-94
2021/03/16 02:28:36;;;;;;;9.63;6.43;;;;;;;2.72;100.00;100398.94;5039634;28;20100;-94
2021/03/16 02:31:06;;;;;;;8.53;5.33;;;;;;;2.65;100.00;100397.13;5038661;28;20053;-95
2021/03/16 02:33:42;;;;;;;9.50;5.77;;;;;;;2.66;100.00;100396.28;5020047;28;20025;-94
2021/03/16 02:36:12;;;;;;;10.77;5.77;;;;;;;2.63;100.00;100398.00;5054544;28;20024;-94
2021/03/16 02:38:43;;;;;;;9.33;5.60;;;;;;;2.62;100.00;100410.16;5037240;28;20036;-95
2021/03/16 02:41:15;;;;;;;10.17;5.37;;;;;;;2.64;100.00;100405.84;5023004;28;20052;-95
2021/03/16 02:43:44;;;;;;;8.77;5.50;;;;;;;2.63;100.00;100411.91;5030924;28;20021;-95
2021/03/16 02:46:13;;;;;;;10.13;5.60;;;;;;;2.61;100.00;100417.97;5058327;28;20020;-95
2021/03/16 02:48:45;;;;;;;8.17;5.10;;;;;;;2.57;100.00;100416.19;5022361;28;20076;-95
2021/03/16 02:51:13;;;;;;;11.77;6.43;;;;;;;2.55;100.00;100426.63;5033272;28;20025;-95
2021/03/16 02:53:48;;;;;;;8.73;5.80;;;;;;;2.54;100.00;100427.50;5035317;28;20033;-95
2021/03/16 02:56:21;;;;;;;9.00;4.83;;;;;;;2.53;100.00;100437.03;5038476;28;20049;-94
2021/03/16 02:58:49;;;;;;;8.17;5.03;;;;;;;2.47;100.00;100434.38;5016251;28;20032;-95
2021/03/16 03:01:18;;;;;;;9.90;5.03;;;;;;;2.46;100.00;100445.66;5022372;28;20084;-95
2021/03/16 03:03:46;;;;;;;6.77;4.60;;;;;;;2.41;100.00;100449.09;5025635;28;20041;-96
2021/03/16 03:06:16;;;;;;;6.97;4.50;;;;;;;2.41;100.00;100449.09;5025313;28;20021;-94
2021/03/16 03:08:45;;;;;;;8.17;3.93;;;;;;;2.38;100.00;100449.06;5016004;28;20063;-94
2021/03/16 03:11:14;;;;;;;5.83;4.50;;;;;;;2.34;100.00;100457.69;5025455;28;20025;-95
2021/03/16 03:13:41;;;;;;;7.80;4.67;;;;;;;2.35;100.00;100467.28;5036213;28;20037;-94
2021/03/16 03:16:07;;;;;;;4.93;3.70;;;;;;;2.33;100.00;100469.88;5023723;28;20109;-95
2021/03/16 03:18:37;;;;;;;7.17;4.40;;;;;;;2.26;100.00;100478.47;5022363;28;20112;-95
2021/03/16 03:21:16;;;;;;;6.37;4.40;;;;;;;2.22;100.00;100477.59;5025136;28;20029;-94
2021/03/16 03:23:58;;;;;;;5.80;4.37;;;;;;;2.25;100.00;100477.59;5040863;28;20037;-96
2021/03/16 03:27:03;;;;;;;5.57;3.80;;;;;;;2.23;100.00;100478.47;5023953;28;20048;-94
2021/03/16 03:29:34;;;;;;;5.85;3.65;;;;;;;2.19;100.00;100493.22;5030362;28;20040;-95
2021/03/16 03:32:01;;;;;;;8.23;3.90;;;;;;;2.20;100.00;100488.88;5042104;28;20035;-95
2021/03/16 03:34:28;;;;;;;8.00;4.47;;;;;;;2.19;100.00;100495.81;5023779;28;20123;-96
2021/03/16 03:36:58;;;;;;;6.87;4.37;;;;;;;2.17;100.00;100502.72;5022407;28;20040;-95
2021/03/16 03:39:27;;;;;;;6.20;4.37;;;;;;;2.17;100.00;100504.44;5023350;28;20029;-95
2021/03/16 03:41:54;;;;;;;6.63;4.37;;;;;;;2.08;100.00;100500.00;5040800;28;20029;-94
2021/03/16 03:44:23;;;;;;;7.57;4.57;;;;;;;1.99;100.00;100505.13;5023920;28;20017;-93
2021/03/16 03:46:49;;;;;;;6.70;4.37;;;;;;;1.95;100.00;100506.81;5010353;28;20033;-95
2021/03/16 03:49:19;;;;;;;11.57;5.10;;;;;;;1.93;100.00;100507.66;5016940;28;20038;-94
2021/03/16 03:51:47;;;;;;;8.60;4.27;;;;;;;1.97;100.00;100520.75;5014008;28;20058;-94
2021/03/16 03:54:16;;;;;;;6.33;4.47;;;;;;;1.96;100.00;100525.94;5038542;28;20176;-94
2021/03/16 03:56:45;;;;;;;8.13;4.30;;;;;;;2.01;100.00;100528.56;5034731;28;20021;-94
2021/03/16 03:59:13;;;;;;;8.23;4.43;;;;;;;1.92;100.00;100532.81;5023226;28;20084;-96
2021/03/16 04:01:40;;;;;;;10.57;5.13;;;;;;;1.92;100.00;100531.94;5020497;28;20021;-95
2021/03/16 04:04:07;;;;;;;7.90;4.10;;;;;;;1.95;100.00;100535.47;5034884;28;20045;-95
2021/03/16 04:06:36;;;;;;;5.60;4.17;;;;;;;1.89;100.00;100535.41;5016430;28;20025;-95
2021/03/16 04:09:03;;;;;;;7.27;4.20;;;;;;;1.86;100.00;100534.50;5018210;28;20026;-94
2021/03/16 04:11:30;;;;;;;9.33;4.37;;;;;;;1.80;100.00;100534.41;5039218;28;20029;-96
2021/03/16 04:13:59;;;;;;;6.73;3.80;;;;;;;1.72;100.00;100536.91;5021086;28;20041;-93
2021/03/16 04:16:26;;;;;;;13.10;4.20;;;;;;;1.68;100.00;100538.63;5034051;28;20037;-94
2021/03/16 04:18:57;;;;;;;7.83;4.20;;;;;;;1.68;100.00;100542.91;5020851;28;20398;-95
2021/03/16 04:21:23;;;;;;;6.03;4.20;;;;;;;1.66;100.00;100552.44;5022236;28;20017;-95
2021/03/16 04:23:50;;;;;;;8.50;4.03;;;;;;;1.66;100.00;100550.72;5022432;28;20036;-93
2021/03/16 04:26:16;;;;;;;6.20;4.03;;;;;;;1.68;100.00;100554.25;5016708;28;20036;-92
2021/03/16 04:28:46;;;;;;;8.17;4.20;;;;;;;1.72;100.00;100552.53;5025837;28;20025;-95
2021/03/16 04:31:13;;;;;;;5.73;3.80;;;;;;;1.70;100.00;100554.25;5021698;28;20031;-94
2021/03/16 04:33:42;;;;;;;7.53;4.80;;;;;;;1.74;100.00;100553.44;5020354;28;20044;-93
2021/03/16 04:36:08;;;;;;;7.33;3.90;;;;;;;1.72;100.00;100567.28;5021593;28;20025;-92
2021/03/16 04:38:35;;;;;;;6.33;3.57;;;;;;;1.72;100.00;100562.97;5025432;28;20113;-94
2021/03/16 04:41:03;;;;;;;6.67;3.60;;;;;;;1.72;100.00;100572.50;5039763;28;20101;-94
2021/03/16 04:43:32;;;;;;;9.90;5.57;;;;;;;1.73;100.00;100574.25;5017879;28;20041;-93
2021/03/16 04:45:58;;;;;;;9.00;4.90;;;;;;;1.71;100.00;100569.03;5025339;28;20049;-93
2021/03/16 04:48:27;;;;;;;6.43;3.93;;;;;;;1.75;100.00;100570.81;5017121;28;20061;-93
2021/03/16 04:50:54;;;;;;;5.70;4.03;;;;;;;1.77;100.00;100578.66;5016676;28;20092;-92
2021/03/16 04:53:20;;;;;;;7.07;4.60;;;;;;;1.72;100.00;100585.53;5018677;28;20027;-94
2021/03/16 04:55:47;;;;;;;8.40;4.60;;;;;;;1.71;100.00;100582.03;5026283;28;20025;-94
2021/03/16 04:58:29;;;;;;;4.80;3.57;;;;;;;1.71;100.00;100596.78;5017255;28;20029;-95
2021/03/16 05:00:56;;;;;;;5.80;3.85;;;;;;;1.69;100.00;100592.44;5025099;28;20044;-95
2021/03/16 05:03:25;;;;;;;5.27;3.80;;;;;;;1.67;100.00;100595.84;5028486;28;20033;-95
2021/03/16 05:05:52;;;;;;;6.30;3.73;;;;;;;1.68;100.00;100611.53;5041878;28;20036;-95
2021/03/16 05:08:18;;;;;;;6.93;4.20;;;;;;;1.67;100.00;100614.09;5025447;28;20045;-93
2021/03/16 05:10:52;;;;;;;5.13;3.33;;;;;;;1.68;100.00;100618.44;5025762;28;20064;-95
2021/03/16 05:13:22;;;;;;;7.83;3.50;;;;;;;1.71;100.00;100617.63;5024207;28;20029;-95
2021/03/16 05:15:52;;;;;;;7.75;3.78;;;;;;;1.68;100.00;100611.53;5034992;23;20080;-72
2021/03/16 05:18:19;;;;;;;7.43;4.37;;;;;;;1.65;100.00;100623.63;5063502;28;20044;-72
2021/03/16 05:20:45;;;;;;;9.03;3.60;;;;;;;1.62;100.00;100628.78;5030839;28;20041;-71
2021/03/16 05:23:11;;;;;;;5.67;3.90;;;;;;;1.62;100.00;100642.69;5016815;28;20647;-72
2021/03/16 05:25:38;;;;;;;5.47;3.30;;;;;;;1.63;100.00;100641.81;5027492;28;20045;-72
2021/03/16 05:28:04;;;;;;;5.07;3.50;;;;;;;1.66;100.00;100641.00;5023877;28;20040;-72
2021/03/16 05:30:30;;;;;;;9.10;4.03;;;;;;;1.67;100.00;100645.34;5010884;28;20128;-72
2021/03/16 05:32:57;;;;;;;7.13;3.70;;;;;;;1.62;100.00;100645.28;5038099;28;20049;-72
2021/03/16 05:35:24;;;;;;;6.30;3.13;;;;;;;1.63;100.00;100653.97;5019715;28;20064;-72
2021/03/16 05:37:51;;;;;;;5.73;3.40;;;;;;;1.57;100.00;100656.47;5044213;28;20041;-72
2021/03/16 05:40:17;;;;;;;6.27;3.57;;;;;;;1.59;100.00;100655.63;5014251;28;20108;-72
2021/03/16 05:42:43;;;;;;;6.67;3.70;;;;;;;1.58;100.00;100661.69;5025023;28;20083;-72
2021/03/16 05:45:10;;;;;;;5.57;3.63;;;;;;;1.59;100.00;100666.03;5027508;28;20037;-72
2021/03/16 05:47:38;;;;;;;6.47;3.33;;;;;;;1.54;100.00;100672.94;4999154;28;20051;-72
2021/03/16 05:50:05;;;;;;;5.40;2.87;;;;;;;1.54;100.00;100677.25;5018611;28;20041;-72
2021/03/16 05:52:32;;;;;;;6.43;3.57;;;;;;;1.51;100.00;100672.84;5035828;28;20041;-72
2021/03/16 05:54:58;;;;;;;4.77;3.10;;;;;;;1.52;100.00;100671.16;5020580;28;20083;-72
2021/03/16 05:57:26;;;;;;;5.10;2.90;;;;;;;1.51;100.00;100678.06;5030715;28;20652;-73
2021/03/16 05:59:53;;;;;;;5.47;3.70;;;;;;;1.51;100.00;100678.06;5033968;28;20045;-72
2021/03/16 06:02:19;;;;;;;6.07;4.23;;;;;;;1.50;100.00;100681.53;5016962;28;20041;-72
2021/03/16 06:04:45;;;;;;;4.93;2.77;;;;;;;1.56;100.00;100685.97;5033664;28;20033;-72
2021/03/16 06:07:12;;;;;;;4.43;3.00;;;;;;;1.57;100.00;100698.13;4997725;28;20069;-72
2021/03/16 06:09:39;;;;;;;4.17;3.17;;;;;;;1.62;100.00;100689.56;5023221;28;20046;-72
2021/03/16 06:12:06;;;;;;;6.20;3.73;;;;;;;1.63;100.00;100693.91;5038059;28;20044;-72
2021/03/16 06:14:48;;;;;;;5.27;3.07;;;;;;;1.65;100.00;100700.00;5020224;28;20118;-72
2021/03/16 06:17:15;;;;;;;4.73;2.83;;;;;;;1.68;100.00;100705.28;5018661;28;20457;-72
2021/03/16 06:19:42;;;;;;;7.50;3.53;;;;;;;1.72;100.00;100702.72;5000159;28;20047;-72
2021/03/16 06:22:08;;;;;;;4.80;2.90;;;;;;;1.78;100.00;100702.81;5007675;23;20041;-71
2021/03/16 06:24:44;;;;;;;4.60;3.10;;;;;;;1.80;100.00;100711.53;4995314;28;20041;-71
2021/03/16 06:27:24;;;;;;;4.93;3.33;;;;;;;1.82;100.00;100713.31;5008996;28;20037;-70
2021/03/16 06:29:51;;;;;;;5.80;3.50;;;;;;;1.81;100.00;100718.50;5042462;28;20065;-71
2021/03/16 06:32:17;;;;;;;6.07;4.00;;;;;;;1.84;100.00;100728.94;5027429;28;20036;-71
2021/03/16 06:34:44;;;;;;;9.37;5.20;;;;;;;1.86;100.00;100724.66;5013304;28;20069;-70
2021/03/16 06:37:11;;;;;;;5.83;3.43;;;;;;;1.86;100.00;100729.88;5054816;28;20139;-70
2021/03/16 06:39:44;;;;;;;19.63;12.53;;;;;;;1.91;100.00;100729.06;5013119;28;20041;-71
2021/03/16 06:42:21;;;;;;;28.43;15.00;;;;;;;1.93;100.00;100734.31;5039276;28;20040;-70
2021/03/16 06:44:57;;;;;;;71.53;40.37;;;;;;;1.98;100.00;100737.88;5050463;28;20291;-70
2021/03/16 06:47:23;;;;;;;15.63;9.67;;;;;;;1.99;100.00;100737.00;5025479;28;20133;-70
2021/03/16 06:49:50;;;;;;;13.03;6.57;;;;;;;2.04;100.00;100747.53;5030575;28;20037;-71
2021/03/16 06:52:17;;;;;;;10.67;6.30;;;;;;;2.05;100.00;100741.44;5029076;28;20049;-70
2021/03/16 06:54:43;;;;;;;6.27;4.53;;;;;;;2.06;100.00;100748.41;5041886;28;20092;-71
2021/03/16 06:57:11;;;;;;;5.13;3.87;;;;;;;2.17;100.00;100742.50;5029588;28;20045;-71
2021/03/16 06:59:37;;;;;;;9.73;5.43;;;;;;;2.23;100.00;100746.94;5038569;28;20645;-71
2021/03/16 07:02:15;;;;;;;6.63;3.37;;;;;;;2.22;100.00;100755.59;5033083;28;20071;-71
2021/03/16 07:04:44;;;;;;;4.93;3.27;;;;;;;2.25;100.00;100761.72;5019879;28;20103;-71
2021/03/16 07:07:11;;;;;;;7.57;6.87;;;;;;;2.30;100.00;100769.63;5025704;28;20647;-71
2021/03/16 07:09:37;;;;;;;6.13;3.60;;;;;;;2.30;100.00;100767.03;5026996;28;20041;-70
2021/03/16 07:12:04;;;;;;;14.23;5.33;;;;;;;2.31;100.00;100763.56;5030344;28;20040;-70
2021/03/16 07:14:31;;;;;;;5.60;3.03;;;;;;;2.35;100.00;100760.13;5033967;28;20559;-71
2021/03/16 07:17:01;;;;;;;7.50;3.43;;;;;;;2.39;100.00;100772.38;5020882;28;20048;-70
2021/03/16 07:19:29;;;;;;;4.77;2.70;;;;;;;2.41;100.00;100773.25;5050168;28;20036;-71
2021/03/16 07:21:57;;;;;;;5.27;2.90;;;;;;;2.40;100.00;100775.84;5033172;28;20049;-71
2021/03/16 07:24:32;;;;;;;4.47;2.70;;;;;;;2.41;100.00;100783.69;5026990;28;20037;-71
2021/03/16 07:26:59;;;;;;;8.07;4.03;;;;;;;2.37;100.00;100784.50;5042308;28;20662;-70
2021/03/16 07:29:26;;;;;;;5.53;2.63;;;;;;;2.40;100.00;100783.69;5028338;28;20065;-70
2021/03/16 07:32:03;;;;;;;5.13;3.20;;;;;;;2.42;100.00;100787.19;5010433;28;20041;-71
2021/03/16 07:34:30;;;;;;;4.27;2.90;;;;;;;2.42;100.00;100795.00;5026411;28;20037;-70
2021/03/16 07:36:57;;;;;;;4.17;2.63;;;;;;;2.41;100.00;100801.06;5038691;28;20044;-71
2021/03/16 07:39:24;;;;;;;4.07;2.83;;;;;;;2.44;100.00;100802.00;5052261;28;20032;-71
2021/03/16 07:41:51;;;;;;;5.30;3.07;;;;;;;2.58;100.00;100807.41;5032196;28;20091;-70
2021/03/16 07:44:19;;;;;;;5.50;2.30;;;;;;;2.76;100.00;100817.22;5042679;28;20083;-70
2021/03/16 07:46:59;;;;;;;7.83;4.90;;;;;;;2.82;100.00;100812.97;5047176;28;20116;-70
2021/03/16 07:49:31;;;;;;;4.43;3.40;;;;;;;2.99;100.00;100823.63;5034671;28;20555;-70
2021/03/16 07:51:58;;;;;;;4.03;2.43;;;;;;;3.06;100.00;100824.59;5028242;28;20036;-70
2021/03/16 07:54:40;;;;;;;7.57;2.77;;;;;;;3.13;100.00;100822.94;5015113;28;20119;-70
2021/03/16 07:57:07;;;;;;;6.37;2.77;;;;;;;3.25;100.00;100820.44;5033550;28;20106;-71
2021/03/16 07:59:35;;;;;;;5.73;2.87;;;;;;;3.35;100.00;100824.91;5027616;28;20037;-71
2021/03/16 08:02:02;;;;;;;8.47;2.90;;;;;;;3.50;100.00;100824.22;5023996;28;20502;-75
2021/03/16 08:04:34;;;;;;;3.00;2.20;;;;;;;3.51;98.59;100834.69;5029924;28;20536;-70
2021/03/16 08:07:02;;;;;;;4.23;2.67;;;;;;;3.31;95.49;100830.97;5028595;28;20060;-73
2021/03/16 08:09:28;;;;;;;7.77;3.47;;;;;;;3.35;97.72;100838.84;5005499;28;20773;-73
2021/03/16 08:11:54;;;;;;;6.13;3.03;;;;;;;3.38;99.99;100836.28;5016550;28;20044;-73
2021/03/16 08:14:28;;;;;;;6.17;3.30;;;;;;;3.51;100.00;100846.88;5028770;28;20096;-73
2021/03/16 08:16:54;;;;;;;5.47;3.20;;;;;;;3.42;95.98;100841.53;5042168;28;20040;-72
2021/03/16 08:19:37;;;;;;;5.23;3.07;;;;;;;3.46;97.31;100839.00;5028773;28;20047;-73
2021/03/16 08:22:04;;;;;;;5.03;3.10;;;;;;;3.59;98.48;100853.06;5032821;28;20039;-73
2021/03/16 08:24:38;;;;;;;5.80;2.73;;;;;;;3.71;95.80;100857.56;5051620;28;20033;-73
2021/03/16 08:27:12;;;;;;;4.50;2.83;;;;;;;3.79;96.29;100859.38;5031961;28;20033;-73
2021/03/16 08:29:42;;;;;;;6.95;3.35;;;;;;;3.67;92.34;100857.50;5010304;28;20091;-73
2021/03/16 08:32:13;;;;;;;8.03;3.27;;;;;;;3.68;91.29;100869.69;5027246;28;20052;-73
2021/03/16 08:34:40;;;;;;;3.73;2.50;;;;;;;3.76;92.51;100859.34;5046368;28;20552;-73
2021/03/16 08:37:07;;;;;;;6.37;2.93;;;;;;;3.74;93.29;100863.69;5048569;28;20539;-72
2021/03/16 08:39:33;;;;;;;6.03;3.30;;;;;;;3.72;93.12;100864.53;5033051;28;20041;-73
2021/03/16 08:42:02;;;;;;;5.17;2.80;;;;;;;3.63;92.82;100868.78;5046060;28;20048;-73
2021/03/16 08:44:31;;;;;;;3.60;2.73;;;;;;;3.70;92.39;100872.34;5043246;28;20041;-72
2021/03/16 08:47:11;;;;;;;4.53;2.47;;;;;;;3.82;92.63;100871.59;5007443;28;20046;-72
2021/03/16 08:49:43;;;;;;;6.20;3.03;;;;;;;3.81;91.50;100877.69;5010335;28;20617;-73
2021/03/16 08:52:20;;;;;;;3.70;2.70;;;;;;;3.85;88.51;100882.06;5011707;28;20107;-73
2021/03/16 08:54:48;;;;;;;5.10;3.10;;;;;;;3.99;90.22;100882.22;5042491;28;20041;-73
2021/03/16 08:57:25;;;;;;;3.67;2.57;;;;;;;4.05;91.55;100893.63;5008947;28;20077;-73
2021/03/16 08:59:54;;;;;;;5.07;3.17;;;;;;;3.97;90.37;100902.25;5011183;28;20128;-73
2021/03/16 09:02:34;;;;;;;4.87;2.40;;;;;;;3.74;89.86;100896.78;5046908;28;20040;-73
2021/03/16 09:05:03;;;;;;;4.93;3.10;;;;;;;3.68;89.84;100897.56;5030461;28;20045;-72
2021/03/16 09:07:34;;;;;;;3.73;2.40;;;;;;;3.71;88.38;100894.13;5032689;28;20118;-73
2021/03/16 09:10:03;;;;;;;3.43;2.50;;;;;;;3.83;90.92;100902.97;5030964;28;20073;-73
2021/03/16 09:12:30;;;;;;;3.50;2.30;;;;;;;3.99;90.13;100913.59;5031358;28;20045;-73
2021/03/16 09:15:11;;;;;;;3.30;2.50;;;;;;;4.24;90.82;100903.38;5049136;28;20052;-73
2021/03/16 09:17:39;;;;;;;2.73;2.13;;;;;;;4.49;87.44;100916.69;5031239;28;20493;-73
2021/03/16 09:20:10;;;;;;;6.27;2.83;;;;;;;4.49;86.48;100919.28;5022693;28;20120;-73
2021/03/16 09:22:37;;;;;;;4.10;2.20;;;;;;;4.55;88.29;100916.75;5050596;28;20669;-73
2021/03/16 09:25:06;;;;;;;5.80;2.97;;;;;;;4.75;87.51;100912.53;5018282;28;20041;-73
2021/03/16 09:27:33;;;;;;;5.83;2.23;;;;;;;4.82;85.67;100912.56;5033886;28;20056;-73
2021/03/16 09:29:59;;;;;;;5.00;2.60;;;;;;;5.00;88.72;100913.56;5010894;28;20051;-73
2021/03/16 09:32:26;;;;;;;3.27;2.30;;;;;;;5.12;85.66;100914.50;5011292;28;20091;-73
2021/03/16 09:34:52;;;;;;;5.10;2.53;;;;;;;5.24;84.22;100914.56;5024881;28;20041;-73
2021/03/16 09:37:19;;;;;;;3.17;2.07;;;;;;;5.46;84.40;100913.78;5027546;28;20040;-73
2021/03/16 09:39:59;;;;;;;3.23;1.93;;;;;;;5.47;83.90;100910.31;4990553;28;20048;-73
2021/03/16 09:42:42;;;;;;;3.10;1.87;;;;;;;5.64;80.55;100915.63;5024666;28;20040;-73
2021/03/16 09:45:21;;;;;;;2.90;2.07;;;;;;;6.38;78.66;100908.81;5028990;28;20033;-73
2021/03/16 09:47:48;;;;;;;3.30;1.80;;;;;;;6.28;71.58;100922.81;5040878;28;20108;-73
2021/03/16 09:50:21;;;;;;;3.10;2.03;;;;;;;6.45;77.15;100921.06;5031163;28;20446;-73
2021/03/16 09:52:48;;;;;;;3.30;2.27;;;;;;;6.46;75.52;100917.56;5033719;28;20075;-73
2021/03/16 09:55:17;;;;;;;4.43;2.00;;;;;;;6.21;77.06;100930.66;5034547;28;20041;-73
2021/03/16 09:57:47;;;;;;;6.07;2.40;;;;;;;6.94;80.00;100926.31;5031765;28;20037;-73
2021/03/16 10:00:15;;;;;;;3.10;1.67;;;;;;;7.21;72.40;100928.88;5013259;28;20048;-72
2021/03/16 10:02:42;;;;;;;5.47;1.93;;;;;;;7.61;72.73;100926.13;5052635;28;20040;-72
2021/03/16 10:05:14;;;;;;;3.67;2.07;;;;;;;8.04;74.35;100929.41;5058404;28;20088;-72
2021/03/16 10:07:52;;;;;;;2.80;2.10;;;;;;;7.83;70.32;100933.03;5046441;28;20036;-71
2021/03/16 10:10:23;;;;;;;4.80;2.37;;;;;;;7.53;67.98;100927.91;5032831;28;20489;-71
2021/03/16 10:13:05;;;;;;;4.60;1.90;;;;;;;8.17;64.23;100932.84;5013085;28;20553;-71
2021/03/16 10:15:37;;;;;;;3.67;2.33;;;;;;;8.01;67.35;100932.06;5031966;28;20045;-72
2021/03/16 10:18:06;;;;;;;3.90;2.45;;;;;;;7.50;64.25;100935.81;5013155;28;20311;-71
2021/03/16 10:20:39;;;;;;;3.10;1.90;;;;;;;7.88;68.99;100940.91;4996284;28;20444;-72
2021/03/16 10:23:08;;;;;;;4.63;2.15;;;;;;;8.34;66.77;100949.41;5030915;28;20036;-72
2021/03/16 10:25:39;;;;;;;4.97;2.35;;;;;;;8.83;66.06;100948.16;5027716;28;20044;-72
2021/03/16 10:28:08;;;;;;;4.20;2.30;;;;;;;8.74;65.36;100946.50;5026679;28;20097;-71
2021/03/16 10:30:43;;;;;;;4.25;2.42;;;;;;;8.60;65.01;100957.16;5035173;28;20528;-71
2021/03/16 10:33:11;;;;;;;4.75;2.15;;;;;;;9.22;69.34;100960.09;5031076;28;20036;-71
2021/03/16 10:35:39;;;;;;;4.35;2.00;;;;;;;10.61;67.29;100951.28;5043905;28;20565;-71
2021/03/16 10:38:07;;;;;;;38.00;19.08;;;;;;;11.98;61.11;100954.94;5015648;28;20049;-71
2021/03/16 10:40:34;;;;;;;9.15;3.15;;;;;;;13.24;57.50;100949.22;5028370;28;20077;-73
2021/03/16 10:43:01;;;;;;;3.55;1.90;;;;;;;14.57;53.89;100958.63;5030705;28;20083;-72
2021/03/16 10:45:27;;;;;;;2.88;2.25;;;;;;;13.90;49.02;100954.47;5030797;28;20475;-71
2021/03/16 10:47:54;;;;;;;3.03;1.85;;;;;;;13.95;48.99;100944.56;5048522;28;20112;-71
2021/03/16 10:50:21;;;;;;;2.97;2.08;;;;;;;15.15;50.23;100951.34;5023143;28;20061;-72
2021/03/16 10:52:48;;;;;;;4.03;2.38;;;;;;;14.50;45.13;100951.75;5020291;28;20049;-72
2021/03/16 10:55:14;;;;;;;3.55;1.85;;;;;;;15.03;44.14;100951.75;5045795;28;20079;-73
2021/03/16 10:57:40;;;;;;;2.50;1.90;;;;;;;14.48;43.41;100950.94;5031850;28;20036;-72
2021/03/16 11:00:09;;;;;;;3.78;1.80;;;;;;;13.63;49.92;100965.00;5036517;28;20102;-71
2021/03/16 11:02:36;;;;;;;3.25;1.75;;;;;;;13.58;52.13;100955.41;5030426;28;20101;-72
2021/03/16 11:05:02;;;;;;;2.90;1.73;;;;;;;12.50;52.23;100969.66;5033320;28;20045;-72
2021/03/16 11:07:31;;;;;;;3.97;1.90;;;;;;;10.87;51.52;100958.78;5046107;28;20445;-71
2021/03/16 11:09:57;;;;;;;5.85;2.95;;;;;;;10.06;57.56;100962.63;5043358;28;20103;-71
2021/03/16 11:12:23;;;;;;;7.93;5.82;;;;;;;10.28;58.79;100962.38;5019460;28;20037;-71
2021/03/16 11:14:49;;;;;;;3.75;1.90;;;;;;;10.37;58.24;100972.78;5036406;28;20044;-71
2021/03/16 11:17:16;;;;;;;5.22;2.70;;;;;;;9.67;58.73;100968.41;5028732;28;20049;-72
2021/03/16 11:19:43;;;;;;;5.63;3.58;;;;;;;9.31;59.73;100968.78;5030659;28;20036;-71
2021/03/16 11:22:10;;;;;;;3.45;2.10;;;;;;;9.46;59.56;100973.03;5028202;28;20052;-71
2021/03/16 11:24:36;;;;;;;6.07;3.40;;;;;;;9.47;58.41;100977.41;5013425;28;20040;-71
2021/03/16 11:27:08;;;;;;;5.43;2.75;;;;;;;9.85;59.04;100976.13;5031178;28;20049;-71
2021/03/16 11:29:35;;;;;;;5.18;2.28;;;;;;;10.14;57.18;100970.44;5044683;28;20053;-72
2021/03/16 11:32:01;;;;;;;8.20;4.20;;;;;;;10.23;57.53;100961.56;5028786;28;20052;-71
2021/03/16 11:34:30;;;;;;;3.45;2.10;;;;;;;10.26;60.59;100954.47;5033933;28;20029;-71
2021/03/16 11:36:59;;;;;;;11.32;7.28;;;;;;;9.53;55.55;100974.72;5047395;28;20052;-71
2021/03/16 11:39:25;;;;;;;3.28;2.00;;;;;;;9.17;58.80;100976.00;5048628;28;20037;-72